sensor_id;sensor_type;location;lat;lon;timestamp;P1;durP1;ratioP1;P2;durP2;ratioP2
19782;SDS011;10051;40.294;-3.754;2022-12-29T00:01:53;14.00;;;6.70;;
19782;SDS011;10051;40.294;-3.754;2022-12-29T00:04:20;14.55;;;5.93;;
19782;SDS011;10051;40.294;-3.754;2022-12-29T00:06:46;15.15;;;6.78;;
19782;SDS011;10051;40.294;-3.754;2022-12-29T00:09:15;13.60;;;6.88;;
19782;SDS011;10051;40.294;-3.754;2022-12-29T00:11:41;18.15;;;7.40;;
19782;SDS011;10051;40.294;-3.754;2022-12-29T00:14:11;16.15;;;7.13;;
19782;SDS011;10051;40.294;-3.754;2022-12-29T00:16:56;14.05;;;7.32;;
19782;SDS011;10051;40.294;-3.754;2022-12-29T00:19:22;14.63;;;7.63;;
19782;SDS011;10051;40.294;-3.754;2022-12-29T00:22:12;13.65;;;7.63;;
19782;SDS011;10051;40.294;-3.754;2022-12-29T00:24:56;14.80;;;8.05;;
19782;SDS011;10051;40.294;-3.754;2022-12-29T00:27:41;18.30;;;7.90;;
19782;SDS011;10051;40.294;-3.754;2022-12-29T00:30:25;19.30;;;7.85;;
19782;SDS011;10051;40.294;-3.754;2022-12-29T00:33:13;13.90;;;7.43;;
19782;SDS011;10051;40.294;-3.754;2022-12-29T00:38:38;20.95;;;7.45;;
19782;SDS011;10051;40.294;-3.754;2022-12-29T00:41:25;14.93;;;7.32;;
19782;SDS011;10051;40.294;-3.754;2022-12-29T00:44:10;14.75;;;7.70;;
19782;SDS011;10051;40.294;-3.754;2022-12-29T00:46:39;22.00;;;7.63;;
19782;SDS011;10051;40.294;-3.754;2022-12-29T00:49:07;17.17;;;7.80;;
19782;SDS011;10051;40.294;-3.754;2022-12-29T00:51:53;14.40;;;7.78;;
19782;SDS011;10051;40.294;-3.754;2022-12-29T00:54:23;19.23;;;7.82;;
19782;SDS011;10051;40.294;-3.754;2022-12-29T00:56:49;16.60;;;7.97;;
19782;SDS011;10051;40.294;-3.754;2022-12-29T00:59:16;16.42;;;7.80;;
19782;SDS011;10051;40.294;-3.754;2022-12-29T01:01:45;16.55;;;7.82;;
19782;SDS011;10051;40.294;-3.754;2022-12-29T01:04:11;17.85;;;8.30;;
19782;SDS011;10051;40.294;-3.754;2022-12-29T01:06:40;16.13;;;7.65;;
19782;SDS011;10051;40.294;-3.754;2022-12-29T01:09:06;15.52;;;7.85;;
19782;SDS011;10051;40.294;-3.754;2022-12-29T01:11:52;18.48;;;7.68;;
19782;SDS011;10051;40.294;-3.754;2022-12-29T01:14:18;16.30;;;7.40;;
19782;SDS011;10051;40.294;-3.754;2022-12-29T01:16:44;18.10;;;7.05;;
19782;SDS011;10051;40.294;-3.754;2022-12-29T01:19:11;15.85;;;7.32;;
19782;SDS011;10051;40.294;-3.754;2022-12-29T01:21:40;15.77;;;7.68;;
19782;SDS011;10051;40.294;-3.754;2022-12-29T01:24:05;14.90;;;7.10;;
19782;SDS011;10051;40.294;-3.754;2022-12-29T01:26:31;18.73;;;7.68;;
19782;SDS011;10051;40.294;-3.754;2022-12-29T01:28:57;14.43;;;7.13;;
19782;SDS011;10051;40.294;-3.754;2022-12-29T01:31:22;22.00;;;7.40;;
19782;SDS011;10051;40.294;-3.754;2022-12-29T01:33:48;18.10;;;6.88;;
19782;SDS011;10051;40.294;-3.754;2022-12-29T01:36:17;17.92;;;7.47;;
19782;SDS011;10051;40.294;-3.754;2022-12-29T01:38:43;14.88;;;6.75;;
19782;SDS011;10051;40.294;-3.754;2022-12-29T01:41:10;21.13;;;7.50;;
19782;SDS011;10051;40.294;-3.754;2022-12-29T01:43:45;16.10;;;6.88;;
19782;SDS011;10051;40.294;-3.754;2022-12-29T01:49:05;17.17;;;7.30;;
19782;SDS011;10051;40.294;-3.754;2022-12-29T01:51:40;12.25;;;6.90;;
19782;SDS011;10051;40.294;-3.754;2022-12-29T01:54:17;15.63;;;7.13;;
19782;SDS011;10051;40.294;-3.754;2022-12-29T01:56:50;13.55;;;6.82;;
19782;SDS011;10051;40.294;-3.754;2022-12-29T01:59:20;14.77;;;7.00;;
19782;SDS011;10051;40.294;-3.754;2022-12-29T02:01:50;14.65;;;7.10;;
19782;SDS011;10051;40.294;-3.754;2022-12-29T02:04:16;15.15;;;6.82;;
19782;SDS011;10051;40.294;-3.754;2022-12-29T02:06:53;15.45;;;6.85;;
19782;SDS011;10051;40.294;-3.754;2022-12-29T02:09:22;14.80;;;6.80;;
19782;SDS011;10051;40.294;-3.754;2022-12-29T02:11:49;16.25;;;7.18;;
19782;SDS011;10051;40.294;-3.754;2022-12-29T02:14:14;14.23;;;6.53;;
19782;SDS011;10051;40.294;-3.754;2022-12-29T02:24:52;18.25;;;7.38;;
19782;SDS011;10051;40.294;-3.754;2022-12-29T02:27:28;12.27;;;6.72;;
19782;SDS011;10051;40.294;-3.754;2022-12-29T02:32:49;15.80;;;7.53;;
19782;SDS011;10051;40.294;-3.754;2022-12-29T02:35:40;14.00;;;7.05;;
19782;SDS011;10051;40.294;-3.754;2022-12-29T02:41:17;15.85;;;7.47;;
19782;SDS011;10051;40.294;-3.754;2022-12-29T02:43:49;17.50;;;8.77;;
19782;SDS011;10051;40.294;-3.754;2022-12-29T02:49:02;16.65;;;8.18;;
19782;SDS011;10051;40.294;-3.754;2022-12-29T02:51:52;18.48;;;8.07;;
19782;SDS011;10051;40.294;-3.754;2022-12-29T02:54:23;16.05;;;7.22;;
19782;SDS011;10051;40.294;-3.754;2022-12-29T02:59:49;14.75;;;6.25;;
19782;SDS011;10051;40.294;-3.754;2022-12-29T03:05:15;10.88;;;5.40;;
19782;SDS011;10051;40.294;-3.754;2022-12-29T03:08:00;14.35;;;5.28;;
19782;SDS011;10051;40.294;-3.754;2022-12-29T03:13:43;15.00;;;5.20;;
19782;SDS011;10051;40.294;-3.754;2022-12-29T03:16:44;15.43;;;5.18;;
19782;SDS011;10051;40.294;-3.754;2022-12-29T03:19:21;11.68;;;5.22;;
19782;SDS011;10051;40.294;-3.754;2022-12-29T03:24:42;11.40;;;5.13;;
19782;SDS011;10051;40.294;-3.754;2022-12-29T03:27:13;10.27;;;4.88;;
19782;SDS011;10051;40.294;-3.754;2022-12-29T03:29:45;15.45;;;5.32;;
19782;SDS011;10051;40.294;-3.754;2022-12-29T03:32:17;11.52;;;4.53;;
19782;SDS011;10051;40.294;-3.754;2022-12-29T03:34:46;9.90;;;4.80;;
19782;SDS011;10051;40.294;-3.754;2022-12-29T03:37:15;11.55;;;4.63;;
19782;SDS011;10051;40.294;-3.754;2022-12-29T03:39:44;12.27;;;5.03;;
19782;SDS011;10051;40.294;-3.754;2022-12-29T03:42:12;12.00;;;4.90;;
19782;SDS011;10051;40.294;-3.754;2022-12-29T03:44:41;12.30;;;5.40;;
19782;SDS011;10051;40.294;-3.754;2022-12-29T03:47:09;9.65;;;5.10;;
19782;SDS011;10051;40.294;-3.754;2022-12-29T03:49:36;12.43;;;5.88;;
19782;SDS011;10051;40.294;-3.754;2022-12-29T03:52:02;10.52;;;5.50;;
19782;SDS011;10051;40.294;-3.754;2022-12-29T03:54:28;14.80;;;5.65;;
19782;SDS011;10051;40.294;-3.754;2022-12-29T03:56:56;13.07;;;5.55;;
19782;SDS011;10051;40.294;-3.754;2022-12-29T03:59:23;10.05;;;5.38;;
19782;SDS011;10051;40.294;-3.754;2022-12-29T04:01:49;13.85;;;5.80;;
19782;SDS011;10051;40.294;-3.754;2022-12-29T04:04:14;14.43;;;5.90;;
19782;SDS011;10051;40.294;-3.754;2022-12-29T04:06:40;12.50;;;5.97;;
19782;SDS011;10051;40.294;-3.754;2022-12-29T04:09:06;12.95;;;6.20;;
19782;SDS011;10051;40.294;-3.754;2022-12-29T04:11:32;12.90;;;6.13;;
19782;SDS011;10051;40.294;-3.754;2022-12-29T04:13:58;11.15;;;5.57;;
19782;SDS011;10051;40.294;-3.754;2022-12-29T04:16:24;12.65;;;6.10;;
19782;SDS011;10051;40.294;-3.754;2022-12-29T04:18:49;16.70;;;6.10;;
19782;SDS011;10051;40.294;-3.754;2022-12-29T04:21:15;16.27;;;6.45;;
19782;SDS011;10051;40.294;-3.754;2022-12-29T04:23:40;13.27;;;5.70;;
19782;SDS011;10051;40.294;-3.754;2022-12-29T04:26:06;13.10;;;5.55;;
19782;SDS011;10051;40.294;-3.754;2022-12-29T04:28:34;13.20;;;6.05;;
19782;SDS011;10051;40.294;-3.754;2022-12-29T04:31:00;10.30;;;5.47;;
19782;SDS011;10051;40.294;-3.754;2022-12-29T04:33:26;13.45;;;5.65;;
19782;SDS011;10051;40.294;-3.754;2022-12-29T04:35:52;15.05;;;6.30;;
19782;SDS011;10051;40.294;-3.754;2022-12-29T04:38:19;12.15;;;6.55;;
19782;SDS011;10051;40.294;-3.754;2022-12-29T04:40:46;13.20;;;7.00;;
19782;SDS011;10051;40.294;-3.754;2022-12-29T04:43:12;13.98;;;6.45;;
19782;SDS011;10051;40.294;-3.754;2022-12-29T04:45:38;14.95;;;6.75;;
19782;SDS011;10051;40.294;-3.754;2022-12-29T04:48:08;12.20;;;6.72;;
19782;SDS011;10051;40.294;-3.754;2022-12-29T04:50:34;16.23;;;7.70;;
19782;SDS011;10051;40.294;-3.754;2022-12-29T04:52:59;16.58;;;7.63;;
19782;SDS011;10051;40.294;-3.754;2022-12-29T04:55:25;16.42;;;8.10;;
19782;SDS011;10051;40.294;-3.754;2022-12-29T04:57:51;14.77;;;7.57;;
19782;SDS011;10051;40.294;-3.754;2022-12-29T05:00:17;17.45;;;7.63;;
19782;SDS011;10051;40.294;-3.754;2022-12-29T05:02:43;15.13;;;6.55;;
19782;SDS011;10051;40.294;-3.754;2022-12-29T05:05:09;13.80;;;5.75;;
19782;SDS011;10051;40.294;-3.754;2022-12-29T05:07:35;16.80;;;6.35;;
19782;SDS011;10051;40.294;-3.754;2022-12-29T05:10:00;12.20;;;5.60;;
19782;SDS011;10051;40.294;-3.754;2022-12-29T05:12:29;15.25;;;6.07;;
19782;SDS011;10051;40.294;-3.754;2022-12-29T05:14:56;13.35;;;6.15;;
19782;SDS011;10051;40.294;-3.754;2022-12-29T05:17:21;13.80;;;6.20;;
19782;SDS011;10051;40.294;-3.754;2022-12-29T05:19:47;15.30;;;6.30;;
19782;SDS011;10051;40.294;-3.754;2022-12-29T05:22:13;12.00;;;6.25;;
19782;SDS011;10051;40.294;-3.754;2022-12-29T05:24:39;13.45;;;5.97;;
19782;SDS011;10051;40.294;-3.754;2022-12-29T05:27:05;14.38;;;5.82;;
19782;SDS011;10051;40.294;-3.754;2022-12-29T05:29:31;11.00;;;5.47;;
19782;SDS011;10051;40.294;-3.754;2022-12-29T05:31:56;14.32;;;5.97;;
19782;SDS011;10051;40.294;-3.754;2022-12-29T05:34:22;11.57;;;5.80;;
19782;SDS011;10051;40.294;-3.754;2022-12-29T05:36:48;13.15;;;5.45;;
19782;SDS011;10051;40.294;-3.754;2022-12-29T05:39:14;10.55;;;5.00;;
19782;SDS011;10051;40.294;-3.754;2022-12-29T05:41:39;11.25;;;5.40;;
19782;SDS011;10051;40.294;-3.754;2022-12-29T05:44:05;10.98;;;4.57;;
19782;SDS011;10051;40.294;-3.754;2022-12-29T05:46:30;12.57;;;5.00;;
19782;SDS011;10051;40.294;-3.754;2022-12-29T05:48:56;10.75;;;5.03;;
19782;SDS011;10051;40.294;-3.754;2022-12-29T05:51:22;9.68;;;5.03;;
19782;SDS011;10051;40.294;-3.754;2022-12-29T05:53:47;10.70;;;4.90;;
19782;SDS011;10051;40.294;-3.754;2022-12-29T05:56:13;8.32;;;5.03;;
19782;SDS011;10051;40.294;-3.754;2022-12-29T05:58:39;11.13;;;5.20;;
19782;SDS011;10051;40.294;-3.754;2022-12-29T06:01:04;10.85;;;4.88;;
19782;SDS011;10051;40.294;-3.754;2022-12-29T06:03:30;15.43;;;4.90;;
19782;SDS011;10051;40.294;-3.754;2022-12-29T06:05:56;9.80;;;4.82;;
19782;SDS011;10051;40.294;-3.754;2022-12-29T06:08:21;9.23;;;4.55;;
19782;SDS011;10051;40.294;-3.754;2022-12-29T06:10:47;12.25;;;4.88;;
19782;SDS011;10051;40.294;-3.754;2022-12-29T06:13:12;12.20;;;5.10;;
19782;SDS011;10051;40.294;-3.754;2022-12-29T06:15:38;10.30;;;5.30;;
19782;SDS011;10051;40.294;-3.754;2022-12-29T06:18:04;11.93;;;5.50;;
19782;SDS011;10051;40.294;-3.754;2022-12-29T06:20:29;13.15;;;5.35;;
19782;SDS011;10051;40.294;-3.754;2022-12-29T06:22:55;12.00;;;5.80;;
19782;SDS011;10051;40.294;-3.754;2022-12-29T06:25:21;11.55;;;5.82;;
19782;SDS011;10051;40.294;-3.754;2022-12-29T06:27:46;15.27;;;6.30;;
19782;SDS011;10051;40.294;-3.754;2022-12-29T06:30:12;15.55;;;6.82;;
19782;SDS011;10051;40.294;-3.754;2022-12-29T06:32:38;11.43;;;5.68;;
19782;SDS011;10051;40.294;-3.754;2022-12-29T06:35:04;10.80;;;5.75;;
19782;SDS011;10051;40.294;-3.754;2022-12-29T06:37:31;13.38;;;5.40;;
19782;SDS011;10051;40.294;-3.754;2022-12-29T06:39:57;12.77;;;4.60;;
19782;SDS011;10051;40.294;-3.754;2022-12-29T06:42:22;8.55;;;4.50;;
19782;SDS011;10051;40.294;-3.754;2022-12-29T06:44:48;14.75;;;5.05;;
19782;SDS011;10051;40.294;-3.754;2022-12-29T06:47:14;12.02;;;4.10;;
19782;SDS011;10051;40.294;-3.754;2022-12-29T06:49:40;14.50;;;5.20;;
19782;SDS011;10051;40.294;-3.754;2022-12-29T06:52:06;15.80;;;5.20;;
19782;SDS011;10051;40.294;-3.754;2022-12-29T06:54:32;12.00;;;5.77;;
19782;SDS011;10051;40.294;-3.754;2022-12-29T06:57:00;12.30;;;5.57;;
19782;SDS011;10051;40.294;-3.754;2022-12-29T06:59:29;11.13;;;5.07;;
19782;SDS011;10051;40.294;-3.754;2022-12-29T07:01:54;13.32;;;5.13;;
19782;SDS011;10051;40.294;-3.754;2022-12-29T07:04:20;12.55;;;4.85;;
19782;SDS011;10051;40.294;-3.754;2022-12-29T07:06:46;11.38;;;4.80;;
19782;SDS011;10051;40.294;-3.754;2022-12-29T07:09:13;9.63;;;4.50;;
19782;SDS011;10051;40.294;-3.754;2022-12-29T07:11:39;11.05;;;4.47;;
19782;SDS011;10051;40.294;-3.754;2022-12-29T07:14:05;13.98;;;4.47;;
19782;SDS011;10051;40.294;-3.754;2022-12-29T07:16:31;12.73;;;4.68;;
19782;SDS011;10051;40.294;-3.754;2022-12-29T07:18:57;11.68;;;4.97;;
19782;SDS011;10051;40.294;-3.754;2022-12-29T07:21:24;12.90;;;5.22;;
19782;SDS011;10051;40.294;-3.754;2022-12-29T07:23:50;12.55;;;5.43;;
19782;SDS011;10051;40.294;-3.754;2022-12-29T07:26:15;16.13;;;5.82;;
19782;SDS011;10051;40.294;-3.754;2022-12-29T07:28:44;12.13;;;5.80;;
19782;SDS011;10051;40.294;-3.754;2022-12-29T07:31:20;10.68;;;5.45;;
19782;SDS011;10051;40.294;-3.754;2022-12-29T07:33:47;13.80;;;5.78;;
19782;SDS011;10051;40.294;-3.754;2022-12-29T07:36:13;13.57;;;6.10;;
19782;SDS011;10051;40.294;-3.754;2022-12-29T07:38:40;14.35;;;5.97;;
19782;SDS011;10051;40.294;-3.754;2022-12-29T07:41:07;16.48;;;5.90;;
19782;SDS011;10051;40.294;-3.754;2022-12-29T07:43:34;13.32;;;5.95;;
19782;SDS011;10051;40.294;-3.754;2022-12-29T07:45:59;12.60;;;5.78;;
19782;SDS011;10051;40.294;-3.754;2022-12-29T07:48:25;16.77;;;6.22;;
19782;SDS011;10051;40.294;-3.754;2022-12-29T07:50:51;12.95;;;6.30;;
19782;SDS011;10051;40.294;-3.754;2022-12-29T07:53:17;13.32;;;5.80;;
19782;SDS011;10051;40.294;-3.754;2022-12-29T07:55:43;11.07;;;5.68;;
19782;SDS011;10051;40.294;-3.754;2022-12-29T07:58:09;14.52;;;6.05;;
19782;SDS011;10051;40.294;-3.754;2022-12-29T08:00:35;11.93;;;6.22;;
19782;SDS011;10051;40.294;-3.754;2022-12-29T08:03:00;12.57;;;5.80;;
19782;SDS011;10051;40.294;-3.754;2022-12-29T08:05:26;18.83;;;6.18;;
19782;SDS011;10051;40.294;-3.754;2022-12-29T08:07:52;17.20;;;5.40;;
19782;SDS011;10051;40.294;-3.754;2022-12-29T08:10:17;11.65;;;5.32;;
19782;SDS011;10051;40.294;-3.754;2022-12-29T08:12:45;10.65;;;5.47;;
19782;SDS011;10051;40.294;-3.754;2022-12-29T08:15:11;12.52;;;5.82;;
19782;SDS011;10051;40.294;-3.754;2022-12-29T08:17:37;12.05;;;6.32;;
19782;SDS011;10051;40.294;-3.754;2022-12-29T08:20:03;13.13;;;6.32;;
19782;SDS011;10051;40.294;-3.754;2022-12-29T08:22:29;14.02;;;6.70;;
19782;SDS011;10051;40.294;-3.754;2022-12-29T08:24:55;19.20;;;7.00;;
19782;SDS011;10051;40.294;-3.754;2022-12-29T08:27:21;14.70;;;6.32;;
19782;SDS011;10051;40.294;-3.754;2022-12-29T08:29:46;17.92;;;5.97;;
19782;SDS011;10051;40.294;-3.754;2022-12-29T08:32:12;15.52;;;5.88;;
19782;SDS011;10051;40.294;-3.754;2022-12-29T08:34:38;12.95;;;5.45;;
19782;SDS011;10051;40.294;-3.754;2022-12-29T08:37:04;12.02;;;4.45;;
19782;SDS011;10051;40.294;-3.754;2022-12-29T08:39:30;18.60;;;4.60;;
19782;SDS011;10051;40.294;-3.754;2022-12-29T08:41:55;14.48;;;4.60;;
19782;SDS011;10051;40.294;-3.754;2022-12-29T08:44:21;12.15;;;3.97;;
19782;SDS011;10051;40.294;-3.754;2022-12-29T08:46:47;6.75;;;2.80;;
19782;SDS011;10051;40.294;-3.754;2022-12-29T08:49:12;10.68;;;2.83;;
19782;SDS011;10051;40.294;-3.754;2022-12-29T08:51:38;6.75;;;2.67;;
19782;SDS011;10051;40.294;-3.754;2022-12-29T08:54:04;5.82;;;2.47;;
19782;SDS011;10051;40.294;-3.754;2022-12-29T08:56:29;6.57;;;2.40;;
19782;SDS011;10051;40.294;-3.754;2022-12-29T08:58:55;8.55;;;2.63;;
19782;SDS011;10051;40.294;-3.754;2022-12-29T09:01:21;8.32;;;2.60;;
19782;SDS011;10051;40.294;-3.754;2022-12-29T09:03:47;10.45;;;2.50;;
19782;SDS011;10051;40.294;-3.754;2022-12-29T09:06:14;10.70;;;2.70;;
19782;SDS011;10051;40.294;-3.754;2022-12-29T09:08:42;9.63;;;2.60;;
19782;SDS011;10051;40.294;-3.754;2022-12-29T09:13:47;9.63;;;2.80;;
19782;SDS011;10051;40.294;-3.754;2022-12-29T09:16:13;11.07;;;3.03;;
19782;SDS011;10051;40.294;-3.754;2022-12-29T09:18:39;7.85;;;2.92;;
19782;SDS011;10051;40.294;-3.754;2022-12-29T09:21:06;12.02;;;3.28;;
19782;SDS011;10051;40.294;-3.754;2022-12-29T09:23:35;9.82;;;3.00;;
19782;SDS011;10051;40.294;-3.754;2022-12-29T09:26:01;10.88;;;3.15;;
19782;SDS011;10051;40.294;-3.754;2022-12-29T09:28:30;9.02;;;2.85;;
19782;SDS011;10051;40.294;-3.754;2022-12-29T09:30:57;7.55;;;2.75;;
19782;SDS011;10051;40.294;-3.754;2022-12-29T09:33:23;14.35;;;3.15;;
19782;SDS011;10051;40.294;-3.754;2022-12-29T09:35:54;8.95;;;2.50;;
19782;SDS011;10051;40.294;-3.754;2022-12-29T09:38:21;7.72;;;2.42;;
19782;SDS011;10051;40.294;-3.754;2022-12-29T09:40:51;8.55;;;2.50;;
19782;SDS011;10051;40.294;-3.754;2022-12-29T09:43:25;7.82;;;2.65;;
19782;SDS011;10051;40.294;-3.754;2022-12-29T09:46:13;10.38;;;3.78;;
19782;SDS011;10051;40.294;-3.754;2022-12-29T09:48:49;10.40;;;3.60;;
19782;SDS011;10051;40.294;-3.754;2022-12-29T09:51:19;9.50;;;3.25;;
19782;SDS011;10051;40.294;-3.754;2022-12-29T09:53:53;8.52;;;2.28;;
19782;SDS011;10051;40.294;-3.754;2022-12-29T09:56:24;6.68;;;1.88;;
19782;SDS011;10051;40.294;-3.754;2022-12-29T09:58:54;7.70;;;1.92;;
19782;SDS011;10051;40.294;-3.754;2022-12-29T10:01:34;4.70;;;1.98;;
19782;SDS011;10051;40.294;-3.754;2022-12-29T10:04:05;4.72;;;1.90;;
19782;SDS011;10051;40.294;-3.754;2022-12-29T10:14:47;9.15;;;2.10;;
19782;SDS011;10051;40.294;-3.754;2022-12-29T10:23:12;8.85;;;2.30;;
19782;SDS011;10051;40.294;-3.754;2022-12-29T10:25:59;10.18;;;2.00;;
19782;SDS011;10051;40.294;-3.754;2022-12-29T10:31:16;11.60;;;2.33;;
19782;SDS011;10051;40.294;-3.754;2022-12-29T10:33:49;7.05;;;2.10;;
19782;SDS011;10051;40.294;-3.754;2022-12-29T10:39:14;11.05;;;1.95;;
19782;SDS011;10051;40.294;-3.754;2022-12-29T10:44:26;8.23;;;2.20;;
19782;SDS011;10051;40.294;-3.754;2022-12-29T10:46:58;6.95;;;2.20;;
19782;SDS011;10051;40.294;-3.754;2022-12-29T10:49:28;6.68;;;2.17;;
19782;SDS011;10051;40.294;-3.754;2022-12-29T10:51:56;7.10;;;2.30;;
19782;SDS011;10051;40.294;-3.754;2022-12-29T10:59:49;12.68;;;2.42;;
19782;SDS011;10051;40.294;-3.754;2022-12-29T11:05:03;10.25;;;3.08;;
19782;SDS011;10051;40.294;-3.754;2022-12-29T11:07:32;12.40;;;2.67;;
19782;SDS011;10051;40.294;-3.754;2022-12-29T11:10:18;9.55;;;2.45;;
19782;SDS011;10051;40.294;-3.754;2022-12-29T11:12:57;6.32;;;2.33;;
19782;SDS011;10051;40.294;-3.754;2022-12-29T11:15:28;5.70;;;2.55;;
19782;SDS011;10051;40.294;-3.754;2022-12-29T11:18:17;8.73;;;2.60;;
19782;SDS011;10051;40.294;-3.754;2022-12-29T11:20:44;10.05;;;2.88;;
19782;SDS011;10051;40.294;-3.754;2022-12-29T11:28:35;7.95;;;2.67;;
19782;SDS011;10051;40.294;-3.754;2022-12-29T11:31:03;9.80;;;2.53;;
19782;SDS011;10051;40.294;-3.754;2022-12-29T11:33:30;5.50;;;2.30;;
19782;SDS011;10051;40.294;-3.754;2022-12-29T11:36:07;7.53;;;2.60;;
19782;SDS011;10051;40.294;-3.754;2022-12-29T11:38:39;7.35;;;2.47;;
19782;SDS011;10051;40.294;-3.754;2022-12-29T11:41:10;6.25;;;2.50;;
19782;SDS011;10051;40.294;-3.754;2022-12-29T11:43:45;8.02;;;2.60;;
19782;SDS011;10051;40.294;-3.754;2022-12-29T11:46:20;12.07;;;2.72;;
19782;SDS011;10051;40.294;-3.754;2022-12-29T11:48:58;9.38;;;2.20;;
19782;SDS011;10051;40.294;-3.754;2022-12-29T11:51:45;8.10;;;2.80;;
19782;SDS011;10051;40.294;-3.754;2022-12-29T11:54:33;7.20;;;2.33;;
19782;SDS011;10051;40.294;-3.754;2022-12-29T11:57:10;8.85;;;2.70;;
19782;SDS011;10051;40.294;-3.754;2022-12-29T11:59:43;10.05;;;2.60;;
19782;SDS011;10051;40.294;-3.754;2022-12-29T12:02:26;7.43;;;2.90;;
19782;SDS011;10051;40.294;-3.754;2022-12-29T12:07:54;7.30;;;3.13;;
19782;SDS011;10051;40.294;-3.754;2022-12-29T12:10:31;6.82;;;3.65;;
19782;SDS011;10051;40.294;-3.754;2022-12-29T12:15:49;9.60;;;4.40;;
19782;SDS011;10051;40.294;-3.754;2022-12-29T12:18:26;8.70;;;3.70;;
19782;SDS011;10051;40.294;-3.754;2022-12-29T12:26:37;6.43;;;2.90;;
19782;SDS011;10051;40.294;-3.754;2022-12-29T12:29:14;7.50;;;3.03;;
19782;SDS011;10051;40.294;-3.754;2022-12-29T12:31:54;7.10;;;2.50;;
19782;SDS011;10051;40.294;-3.754;2022-12-29T12:45:28;5.38;;;2.30;;
19782;SDS011;10051;40.294;-3.754;2022-12-29T12:48:07;3.33;;;2.10;;
19782;SDS011;10051;40.294;-3.754;2022-12-29T12:53:44;6.28;;;2.00;;
19782;SDS011;10051;40.294;-3.754;2022-12-29T12:59:37;6.80;;;2.10;;
19782;SDS011;10051;40.294;-3.754;2022-12-29T13:02:21;6.90;;;2.30;;
19782;SDS011;10051;40.294;-3.754;2022-12-29T13:08:04;8.35;;;3.13;;
19782;SDS011;10051;40.294;-3.754;2022-12-29T13:11:04;5.35;;;2.72;;
19782;SDS011;10051;40.294;-3.754;2022-12-29T13:17:09;4.32;;;2.03;;
19782;SDS011;10051;40.294;-3.754;2022-12-29T13:19:41;2.75;;;1.48;;
19782;SDS011;10051;40.294;-3.754;2022-12-29T13:22:31;3.53;;;1.60;;
19782;SDS011;10051;40.294;-3.754;2022-12-29T13:30:21;2.03;;;1.30;;
19782;SDS011;10051;40.294;-3.754;2022-12-29T13:40:56;5.40;;;1.98;;
19782;SDS011;10051;40.294;-3.754;2022-12-29T13:43:31;2.42;;;1.50;;
19782;SDS011;10051;40.294;-3.754;2022-12-29T13:46:12;5.88;;;1.30;;
19782;SDS011;10051;40.294;-3.754;2022-12-29T13:48:46;3.10;;;1.23;;
19782;SDS011;10051;40.294;-3.754;2022-12-29T13:51:18;3.10;;;1.50;;
19782;SDS011;10051;40.294;-3.754;2022-12-29T13:53:55;3.13;;;1.60;;
19782;SDS011;10051;40.294;-3.754;2022-12-29T13:58:58;2.88;;;1.30;;
19782;SDS011;10051;40.294;-3.754;2022-12-29T14:04:54;1.90;;;1.30;;
19782;SDS011;10051;40.294;-3.754;2022-12-29T14:07:21;2.65;;;1.50;;
19782;SDS011;10051;40.294;-3.754;2022-12-29T14:09:48;2.70;;;1.40;;
19782;SDS011;10051;40.294;-3.754;2022-12-29T14:12:30;3.28;;;1.60;;
19782;SDS011;10051;40.294;-3.754;2022-12-29T14:15:43;2.50;;;1.50;;
19782;SDS011;10051;40.294;-3.754;2022-12-29T14:18:02;2.25;;;1.20;;
19782;SDS011;10051;40.294;-3.754;2022-12-29T14:23:42;2.85;;;1.80;;
19782;SDS011;10051;40.294;-3.754;2022-12-29T14:26:14;5.93;;;2.80;;
19782;SDS011;10051;40.294;-3.754;2022-12-29T14:28:48;11.68;;;5.70;;
19782;SDS011;10051;40.294;-3.754;2022-12-29T14:33:40;4.75;;;1.85;;
19782;SDS011;10051;40.294;-3.754;2022-12-29T14:42:04;4.35;;;2.05;;
19782;SDS011;10051;40.294;-3.754;2022-12-29T14:44:51;2.80;;;1.77;;
19782;SDS011;10051;40.294;-3.754;2022-12-29T14:47:33;5.47;;;3.28;;
19782;SDS011;10051;40.294;-3.754;2022-12-29T14:50:07;11.65;;;7.68;;
19782;SDS011;10051;40.294;-3.754;2022-12-29T14:58:19;4.35;;;1.60;;
19782;SDS011;10051;40.294;-3.754;2022-12-29T15:00:51;3.15;;;1.60;;
19782;SDS011;10051;40.294;-3.754;2022-12-29T15:03:19;3.83;;;1.40;;
19782;SDS011;10051;40.294;-3.754;2022-12-29T15:08:37;1.80;;;1.13;;
19782;SDS011;10051;40.294;-3.754;2022-12-29T15:13:44;2.58;;;1.40;;
19782;SDS011;10051;40.294;-3.754;2022-12-29T15:16:29;2.25;;;1.38;;
19782;SDS011;10051;40.294;-3.754;2022-12-29T15:18:55;2.40;;;1.20;;
19782;SDS011;10051;40.294;-3.754;2022-12-29T15:21:24;2.63;;;1.00;;
19782;SDS011;10051;40.294;-3.754;2022-12-29T15:23:51;4.47;;;1.70;;
19782;SDS011;10051;40.294;-3.754;2022-12-29T15:26:18;3.25;;;1.70;;
19782;SDS011;10051;40.294;-3.754;2022-12-29T15:28:47;5.43;;;2.60;;
19782;SDS011;10051;40.294;-3.754;2022-12-29T15:31:16;3.88;;;2.20;;
19782;SDS011;10051;40.294;-3.754;2022-12-29T15:33:45;4.35;;;1.90;;
19782;SDS011;10051;40.294;-3.754;2022-12-29T15:36:20;7.80;;;2.00;;
19782;SDS011;10051;40.294;-3.754;2022-12-29T15:38:53;4.47;;;1.90;;
19782;SDS011;10051;40.294;-3.754;2022-12-29T15:41:26;4.22;;;1.55;;
19782;SDS011;10051;40.294;-3.754;2022-12-29T15:46:42;6.13;;;2.70;;
19782;SDS011;10051;40.294;-3.754;2022-12-29T15:49:14;6.03;;;3.10;;
19782;SDS011;10051;40.294;-3.754;2022-12-29T15:51:41;3.65;;;2.03;;
19782;SDS011;10051;40.294;-3.754;2022-12-29T15:54:17;3.38;;;1.67;;
19782;SDS011;10051;40.294;-3.754;2022-12-29T15:56:46;2.92;;;1.75;;
19782;SDS011;10051;40.294;-3.754;2022-12-29T15:59:27;4.72;;;2.10;;
19782;SDS011;10051;40.294;-3.754;2022-12-29T16:01:53;2.97;;;1.85;;
19782;SDS011;10051;40.294;-3.754;2022-12-29T16:04:20;3.85;;;2.10;;
19782;SDS011;10051;40.294;-3.754;2022-12-29T16:06:54;4.75;;;2.50;;
19782;SDS011;10051;40.294;-3.754;2022-12-29T16:09:34;5.60;;;2.67;;
19782;SDS011;10051;40.294;-3.754;2022-12-29T16:12:02;5.50;;;3.20;;
19782;SDS011;10051;40.294;-3.754;2022-12-29T16:14:32;6.20;;;3.17;;
19782;SDS011;10051;40.294;-3.754;2022-12-29T16:17:10;4.50;;;2.40;;
19782;SDS011;10051;40.294;-3.754;2022-12-29T16:19:40;7.03;;;2.60;;
19782;SDS011;10051;40.294;-3.754;2022-12-29T16:24:54;6.88;;;4.30;;
19782;SDS011;10051;40.294;-3.754;2022-12-29T16:27:38;7.45;;;4.07;;
19782;SDS011;10051;40.294;-3.754;2022-12-29T16:30:20;11.25;;;4.75;;
19782;SDS011;10051;40.294;-3.754;2022-12-29T16:32:55;7.65;;;3.55;;
19782;SDS011;10051;40.294;-3.754;2022-12-29T16:35:23;7.68;;;3.40;;
19782;SDS011;10051;40.294;-3.754;2022-12-29T16:43:40;8.10;;;3.95;;
19782;SDS011;10051;40.294;-3.754;2022-12-29T16:46:18;11.77;;;5.60;;
19782;SDS011;10051;40.294;-3.754;2022-12-29T16:48:54;8.88;;;4.82;;
19782;SDS011;10051;40.294;-3.754;2022-12-29T16:51:29;9.98;;;5.10;;
19782;SDS011;10051;40.294;-3.754;2022-12-29T16:53:59;12.13;;;5.28;;
19782;SDS011;10051;40.294;-3.754;2022-12-29T16:56:27;7.88;;;4.80;;
19782;SDS011;10051;40.294;-3.754;2022-12-29T17:01:29;8.38;;;4.38;;
19782;SDS011;10051;40.294;-3.754;2022-12-29T17:04:00;7.50;;;3.90;;
19782;SDS011;10051;40.294;-3.754;2022-12-29T17:06:33;5.43;;;2.80;;
19782;SDS011;10051;40.294;-3.754;2022-12-29T17:08:58;5.55;;;3.17;;
19782;SDS011;10051;40.294;-3.754;2022-12-29T17:11:28;5.43;;;3.38;;
19782;SDS011;10051;40.294;-3.754;2022-12-29T17:14:19;7.43;;;3.20;;
19782;SDS011;10051;40.294;-3.754;2022-12-29T17:16:48;9.48;;;4.10;;
19782;SDS011;10051;40.294;-3.754;2022-12-29T17:19:17;8.85;;;3.15;;
19782;SDS011;10051;40.294;-3.754;2022-12-29T17:21:45;20.75;;;8.82;;
19782;SDS011;10051;40.294;-3.754;2022-12-29T17:24:17;16.40;;;8.63;;
19782;SDS011;10051;40.294;-3.754;2022-12-29T17:26:44;20.08;;;10.52;;
19782;SDS011;10051;40.294;-3.754;2022-12-29T17:29:15;18.15;;;9.80;;